createdAt,value
2023-04-18T00:01:38.680Z,3.28
2023-04-18T00:04:09.428Z,3.13
2023-04-18T00:06:40.209Z,4.47
2023-04-18T00:09:10.731Z,3.10
2023-04-18T00:11:41.015Z,4.22
2023-04-18T00:14:12.170Z,4.97
2023-04-18T00:16:48.871Z,3.85
2023-04-18T00:19:19.152Z,3.35
2023-04-18T00:21:49.641Z,4.63
2023-04-18T00:24:20.034Z,3.67
2023-04-18T00:26:50.241Z,3.50
2023-04-18T00:29:20.272Z,4.30
2023-04-18T00:31:53.368Z,5.78
2023-04-18T00:34:23.613Z,3.17
2023-04-18T00:36:56.675Z,4.05
2023-04-18T00:39:26.815Z,3.97
2023-04-18T00:41:57.308Z,5.28
2023-04-18T00:44:27.357Z,3.85
2023-04-18T00:47:00.292Z,3.95
2023-04-18T00:49:31.077Z,3.50
2023-04-18T00:52:02.482Z,3.60
2023-04-18T00:54:33.194Z,2.70
2023-04-18T00:57:03.367Z,3.78
2023-04-18T00:59:33.792Z,4.47
2023-04-18T01:02:07.513Z,4.82
2023-04-18T01:04:38.010Z,3.15
2023-04-18T01:07:08.735Z,4.32
2023-04-18T01:09:42.329Z,4.68
2023-04-18T01:12:14.960Z,5.25
2023-04-18T01:14:49.047Z,3.95
2023-04-18T01:17:23.700Z,3.35
2023-04-18T01:19:55.170Z,3.08
2023-04-18T01:22:25.754Z,4.18
2023-04-18T01:24:58.944Z,4.15
2023-04-18T01:27:29.304Z,4.78
2023-04-18T01:29:59.705Z,4.53
2023-04-18T01:32:33.367Z,4.63
2023-04-18T01:35:04.144Z,3.30
2023-04-18T01:37:34.909Z,5.35
2023-04-18T01:40:09.546Z,3.85
2023-04-18T01:42:41.252Z,4.05
2023-04-18T01:45:16.181Z,5.88
2023-04-18T01:47:46.801Z,7.68
2023-04-18T01:50:17.485Z,5.85
2023-04-18T01:52:47.987Z,4.63
2023-04-18T01:55:22.716Z,4.82
2023-04-18T01:57:53.686Z,3.77
2023-04-18T02:00:24.793Z,4.90
2023-04-18T02:02:54.951Z,7.18
2023-04-18T02:05:27.323Z,6.20
2023-04-18T02:07:57.981Z,7.25
2023-04-18T02:10:31.172Z,7.63
2023-04-18T02:13:01.312Z,5.78
2023-04-18T02:15:31.555Z,4.40
2023-04-18T02:18:02.827Z,4.72
2023-04-18T02:20:35.108Z,6.82
2023-04-18T02:23:05.983Z,4.32
2023-04-18T02:25:38.832Z,7.10
2023-04-18T02:28:09.083Z,6.43
2023-04-18T02:30:39.628Z,6.28
2023-04-18T02:33:09.884Z,5.07
2023-04-18T02:35:40.962Z,6.78
2023-04-18T02:38:14.155Z,5.30
2023-04-18T02:40:47.472Z,5.28
2023-04-18T02:43:17.966Z,5.90
2023-04-18T02:45:48.300Z,5.65
2023-04-18T02:48:18.724Z,6.57
2023-04-18T02:50:49.426Z,4.60
2023-04-18T02:53:19.978Z,4.03
2023-04-18T02:55:59.344Z,5.20
2023-04-18T02:58:40.303Z,6.85
2023-04-18T03:01:32.225Z,8.05
2023-04-18T03:04:13.167Z,6.07
2023-04-18T03:06:48.040Z,5.53
2023-04-18T03:09:19.327Z,4.05
2023-04-18T03:11:56.889Z,5.63
2023-04-18T03:14:30.485Z,6.07
2023-04-18T03:17:00.833Z,5.07
2023-04-18T03:19:37.487Z,4.25
2023-04-18T03:22:11.750Z,5.25
2023-04-18T03:24:49.375Z,4.50
2023-04-18T03:27:24.400Z,5.22
2023-04-18T03:29:54.762Z,4.05
2023-04-18T03:32:26.156Z,3.33
2023-04-18T03:34:57.187Z,7.25
2023-04-18T03:37:27.527Z,4.50
2023-04-18T03:39:59.723Z,3.90
2023-04-18T03:42:34.425Z,4.43
2023-04-18T03:45:04.506Z,4.18
2023-04-18T03:47:38.184Z,5.72
2023-04-18T03:50:09.931Z,6.35
2023-04-18T03:52:41.132Z,6.60
2023-04-18T03:55:12.349Z,8.77
2023-04-18T03:57:45.132Z,8.30
2023-04-18T04:00:22.735Z,6.18
2023-04-18T04:03:03.086Z,7.22
2023-04-18T04:05:33.340Z,6.03
2023-04-18T04:08:03.510Z,5.65
2023-04-18T04:10:33.713Z,4.90
2023-04-18T04:13:06.612Z,5.90
2023-04-18T04:15:40.391Z,6.88
2023-04-18T04:18:13.449Z,5.55
2023-04-18T04:20:49.031Z,6.30
2023-04-18T04:23:33.286Z,8.20
2023-04-18T04:26:04.850Z,6.85
2023-04-18T04:28:49.313Z,7.70
2023-04-18T04:31:23.240Z,5.68
2023-04-18T04:33:53.920Z,8.50
2023-04-18T04:36:30.288Z,5.95
2023-04-18T04:39:02.905Z,5.03
2023-04-18T04:41:41.689Z,5.13
2023-04-18T04:44:18.100Z,5.47
2023-04-18T04:46:50.033Z,5.43
2023-04-18T04:49:24.951Z,5.00
2023-04-18T04:51:55.139Z,5.38
2023-04-18T04:54:25.435Z,5.25
2023-04-18T04:56:55.800Z,6.32
2023-04-18T04:59:41.532Z,5.72
2023-04-18T05:02:11.904Z,5.97
2023-04-18T05:04:42.485Z,5.35
2023-04-18T05:07:12.986Z,4.88
2023-04-18T05:09:43.180Z,5.20
2023-04-18T05:12:13.479Z,4.72
2023-04-18T05:14:46.689Z,6.03
2023-04-18T05:17:16.847Z,5.85
2023-04-18T05:19:47.232Z,7.00
2023-04-18T05:22:17.567Z,5.10
2023-04-18T05:24:47.824Z,7.10
2023-04-18T05:27:18.294Z,7.57
2023-04-18T05:29:51.152Z,5.15
2023-04-18T05:32:21.894Z,5.13
2023-04-18T05:34:52.306Z,6.32
2023-04-18T05:37:22.740Z,7.78
2023-04-18T05:39:52.990Z,5.03
2023-04-18T05:42:23.121Z,5.60
2023-04-18T05:44:55.887Z,4.88
2023-04-18T05:47:28.710Z,4.68
2023-04-18T05:49:59.000Z,5.72
2023-04-18T05:52:29.268Z,5.22
2023-04-18T05:54:59.651Z,6.93
2023-04-18T05:57:29.954Z,8.05
2023-04-18T06:00:02.848Z,5.20
2023-04-18T06:02:43.007Z,5.88
2023-04-18T06:05:15.401Z,7.70
2023-04-18T06:07:46.218Z,6.20
2023-04-18T06:10:16.546Z,6.28
2023-04-18T06:12:46.636Z,8.50
2023-04-18T06:15:19.658Z,5.05
2023-04-18T06:17:49.960Z,7.35
2023-04-18T06:20:20.234Z,5.75
2023-04-18T06:22:50.677Z,7.80
2023-04-18T06:25:21.075Z,9.82
2023-04-18T06:27:51.205Z,7.07
2023-04-18T06:30:24.174Z,6.57
2023-04-18T06:32:54.634Z,7.45
2023-04-18T06:35:26.496Z,7.10
2023-04-18T06:37:56.810Z,9.02
2023-04-18T06:40:27.185Z,5.30
2023-04-18T06:42:57.261Z,6.82
2023-04-18T06:45:30.325Z,5.63
2023-04-18T06:48:02.043Z,6.07
2023-04-18T06:50:32.591Z,6.53
2023-04-18T06:53:02.775Z,8.15
2023-04-18T06:55:37.056Z,5.28
2023-04-18T06:58:08.817Z,8.38
2023-04-18T07:00:41.600Z,5.80
2023-04-18T07:03:13.866Z,8.48
2023-04-18T07:05:44.435Z,8.18
2023-04-18T07:08:14.627Z,6.55
2023-04-18T07:10:46.981Z,7.10
2023-04-18T07:13:17.512Z,7.75
2023-04-18T07:15:50.534Z,8.55
2023-04-18T07:18:26.765Z,7.78
2023-04-18T07:21:07.958Z,8.57
2023-04-18T07:23:38.347Z,7.72
2023-04-18T07:26:10.229Z,10.38
2023-04-18T07:28:40.630Z,10.30
2023-04-18T07:31:14.855Z,8.52
2023-04-18T07:33:45.430Z,8.77
2023-04-18T07:36:15.605Z,8.10
2023-04-18T07:38:46.522Z,7.80
2023-04-18T07:41:16.976Z,9.20
2023-04-18T07:43:47.481Z,8.80
2023-04-18T07:46:20.336Z,7.50
2023-04-18T07:48:50.928Z,6.85
2023-04-18T07:51:21.105Z,6.55
2023-04-18T07:53:51.317Z,6.65
2023-04-18T07:56:21.969Z,4.85
2023-04-18T07:58:52.324Z,5.68
2023-04-18T08:01:27.360Z,5.45
2023-04-18T08:04:02.044Z,6.10
2023-04-18T08:06:32.572Z,6.10
2023-04-18T08:09:04.851Z,5.43
2023-04-18T08:11:35.695Z,5.55
2023-04-18T08:14:05.943Z,5.22
2023-04-18T08:16:40.023Z,6.78
2023-04-18T08:19:12.296Z,5.63
2023-04-18T08:21:46.009Z,5.70
2023-04-18T08:24:16.292Z,7.40
2023-04-18T08:26:46.541Z,5.00
2023-04-18T08:29:16.743Z,4.03
2023-04-18T08:31:49.579Z,4.93
2023-04-18T08:34:19.768Z,3.92
2023-04-18T08:36:50.126Z,4.07
2023-04-18T08:39:20.476Z,5.43
2023-04-18T08:41:57.545Z,4.95
2023-04-18T08:44:27.955Z,5.88
2023-04-18T08:47:01.957Z,6.35
2023-04-18T08:49:34.159Z,4.75
2023-04-18T08:52:05.622Z,4.82
2023-04-18T08:54:38.354Z,5.18
2023-04-18T08:57:09.262Z,5.55
2023-04-18T08:59:40.449Z,4.07
2023-04-18T09:02:13.370Z,5.70
2023-04-18T09:04:46.107Z,5.53
2023-04-18T09:07:19.058Z,6.47
2023-04-18T09:09:51.040Z,4.47
2023-04-18T09:12:23.256Z,5.65
2023-04-18T09:14:57.820Z,7.25
2023-04-18T09:17:42.474Z,6.60
2023-04-18T09:22:48.923Z,3.67
2023-04-18T09:25:29.697Z,4.28
2023-04-18T09:28:01.314Z,5.82
2023-04-18T09:30:38.433Z,5.22
2023-04-18T09:33:12.967Z,4.57
2023-04-18T09:38:13.189Z,3.83
2023-04-18T09:40:43.354Z,4.45
2023-04-18T09:43:23.457Z,4.30
2023-04-18T09:45:54.908Z,4.45
2023-04-18T09:48:27.863Z,3.90
2023-04-18T09:50:58.222Z,6.13
2023-04-18T09:53:29.392Z,3.67
2023-04-18T09:56:00.610Z,4.88
2023-04-18T09:58:35.537Z,3.30
2023-04-18T10:01:07.657Z,3.40
2023-04-18T10:03:47.412Z,4.07
2023-04-18T10:06:19.669Z,3.42
2023-04-18T10:08:51.914Z,3.88
2023-04-18T10:11:22.179Z,5.53
2023-04-18T10:13:56.157Z,4.97
2023-04-18T10:16:26.953Z,3.90
2023-04-18T10:18:59.813Z,5.00
2023-04-18T10:21:31.725Z,5.25
2023-04-18T10:24:02.094Z,4.50
2023-04-18T10:26:50.546Z,4.53
2023-04-18T10:29:20.936Z,3.38
2023-04-18T10:31:51.893Z,3.75
2023-04-18T10:34:24.797Z,4.95
2023-04-18T10:37:08.740Z,3.83
2023-04-18T10:39:54.043Z,3.20
2023-04-18T10:43:02.652Z,3.78
2023-04-18T10:45:36.667Z,4.47
2023-04-18T10:48:29.544Z,3.17
2023-04-18T10:51:26.551Z,2.40
2023-04-18T10:54:00.578Z,4.22
2023-04-18T10:56:31.471Z,3.53
2023-04-18T10:59:05.638Z,4.13
2023-04-18T11:01:40.723Z,4.80
2023-04-18T11:04:16.573Z,4.28
2023-04-18T11:06:55.094Z,3.00
2023-04-18T11:09:25.459Z,3.58
2023-04-18T11:12:10.042Z,2.38
2023-04-18T11:14:43.926Z,2.35
2023-04-18T11:17:22.463Z,3.75
2023-04-18T11:19:53.325Z,3.42
2023-04-18T11:22:26.268Z,1.95
2023-04-18T11:25:02.046Z,3.00
2023-04-18T11:27:32.750Z,1.90
2023-04-18T11:30:02.886Z,2.20
2023-04-18T11:32:33.621Z,2.70
2023-04-18T11:35:03.965Z,3.15
2023-04-18T11:37:38.148Z,2.70
2023-04-18T11:42:41.500Z,2.95
2023-04-18T11:45:16.150Z,2.63
2023-04-18T11:47:46.980Z,3.60
2023-04-18T11:50:17.558Z,4.38
2023-04-18T11:52:54.181Z,3.92
2023-04-18T11:55:27.420Z,2.90
2023-04-18T11:57:59.052Z,3.53
2023-04-18T12:00:37.717Z,4.60
2023-04-18T12:03:12.648Z,4.43
2023-04-18T12:05:45.399Z,4.30
2023-04-18T12:08:26.029Z,3.90
2023-04-18T12:10:58.014Z,4.22
2023-04-18T12:13:29.776Z,3.50
2023-04-18T12:16:00.871Z,4.05
2023-04-18T12:18:31.705Z,3.85
2023-04-18T12:21:02.230Z,3.40
2023-04-18T12:23:37.229Z,5.20
2023-04-18T12:26:09.124Z,4.85
2023-04-18T12:28:39.536Z,4.47
2023-04-18T12:31:09.884Z,3.20
2023-04-18T12:33:40.242Z,3.40
2023-04-18T12:36:11.380Z,3.25
2023-04-18T12:38:44.764Z,2.70
2023-04-18T12:41:14.945Z,2.88
2023-04-18T12:43:45.660Z,3.78
2023-04-18T12:46:15.910Z,2.70
2023-04-18T12:48:46.357Z,3.92
2023-04-18T12:51:16.890Z,3.05
2023-04-18T12:53:49.628Z,2.58
2023-04-18T12:56:19.836Z,2.38
2023-04-18T12:58:50.080Z,3.85
2023-04-18T13:01:21.135Z,3.03
2023-04-18T13:04:03.936Z,3.05
2023-04-18T13:06:41.582Z,2.80
2023-04-18T13:09:17.156Z,2.85
2023-04-18T13:11:49.557Z,2.38
2023-04-18T13:14:20.091Z,2.92
2023-04-18T13:16:50.228Z,2.88
2023-04-18T13:19:20.581Z,3.38
2023-04-18T13:21:51.855Z,3.20
2023-04-18T13:24:24.794Z,3.03
2023-04-18T13:26:55.128Z,3.20
2023-04-18T13:29:25.349Z,2.28
2023-04-18T13:31:55.832Z,2.50
2023-04-18T13:34:26.065Z,2.70
2023-04-18T13:36:57.878Z,2.70
2023-04-18T13:39:32.232Z,2.50
2023-04-18T13:42:03.465Z,2.22
2023-04-18T13:44:34.118Z,2.95
2023-04-18T13:47:05.188Z,2.70
2023-04-18T13:49:37.420Z,2.55
2023-04-18T13:52:08.547Z,4.55
2023-04-18T13:54:41.536Z,2.70
2023-04-18T13:57:14.889Z,3.70
2023-04-18T13:59:45.168Z,2.90
2023-04-18T14:02:15.992Z,2.83
2023-04-18T14:04:46.888Z,3.55
2023-04-18T14:07:17.219Z,3.10
2023-04-18T14:09:50.816Z,3.60
2023-04-18T14:12:21.925Z,3.03
2023-04-18T14:14:52.210Z,2.65
2023-04-18T14:17:22.733Z,2.03
2023-04-18T14:19:52.979Z,4.93
2023-04-18T14:22:23.522Z,2.58
2023-04-18T14:24:56.790Z,2.15
2023-04-18T14:27:27.576Z,1.63
2023-04-18T14:29:57.739Z,3.00
2023-04-18T14:32:28.238Z,2.40
2023-04-18T14:34:59.220Z,3.08
2023-04-18T14:37:29.470Z,2.53
2023-04-18T14:40:02.356Z,2.22
2023-04-18T14:42:32.485Z,3.00
2023-04-18T14:45:03.344Z,2.25
2023-04-18T14:47:34.962Z,1.75
2023-04-18T14:50:05.087Z,2.30
2023-04-18T14:52:35.802Z,3.33
2023-04-18T14:55:10.076Z,2.75
2023-04-18T14:57:41.184Z,2.93
2023-04-18T15:00:13.203Z,2.80
2023-04-18T15:02:43.943Z,2.53
2023-04-18T15:05:15.344Z,2.40
2023-04-18T15:07:46.228Z,4.28
2023-04-18T15:10:19.062Z,3.30
2023-04-18T15:12:51.479Z,2.63
2023-04-18T15:15:22.963Z,3.85
2023-04-18T15:17:53.079Z,2.58
2023-04-18T15:20:24.094Z,2.90
2023-04-18T15:22:54.697Z,2.28
2023-04-18T15:25:27.951Z,4.30
2023-04-18T15:27:58.401Z,3.67
2023-04-18T15:30:29.227Z,2.88
2023-04-18T15:32:59.391Z,2.78
2023-04-18T15:35:29.830Z,2.80
2023-04-18T15:38:00.432Z,2.22
2023-04-18T15:40:33.384Z,1.85
2023-04-18T15:43:04.255Z,2.17
2023-04-18T15:45:34.489Z,2.00
2023-04-18T15:48:04.789Z,3.22
2023-04-18T15:50:35.131Z,3.88
2023-04-18T15:53:05.485Z,2.90
2023-04-18T15:55:38.532Z,2.95
2023-04-18T15:58:08.950Z,2.47
2023-04-18T16:00:50.906Z,4.15
2023-04-18T16:03:21.412Z,4.57
2023-04-18T16:05:51.928Z,3.20
2023-04-18T16:08:22.274Z,3.28
2023-04-18T16:10:55.451Z,4.15
2023-04-18T16:13:25.777Z,4.32
2023-04-18T16:15:56.274Z,3.05
2023-04-18T16:18:26.496Z,3.83
2023-04-18T16:20:56.734Z,4.00
2023-04-18T16:23:27.946Z,3.50
2023-04-18T16:26:00.875Z,2.80
2023-04-18T16:28:31.089Z,2.90
2023-04-18T16:31:01.403Z,3.95
2023-04-18T16:33:31.656Z,4.05
2023-04-18T16:36:03.493Z,4.70
2023-04-18T16:38:33.799Z,3.70
2023-04-18T16:41:09.611Z,4.65
2023-04-18T16:43:40.014Z,2.45
2023-04-18T16:46:12.109Z,3.55
2023-04-18T16:48:42.513Z,3.63
2023-04-18T16:51:13.320Z,5.28
2023-04-18T16:53:44.764Z,4.25
2023-04-18T16:56:17.817Z,3.78
2023-04-18T16:58:48.576Z,4.88
2023-04-18T17:01:20.653Z,4.53
2023-04-18T17:03:51.650Z,5.55
2023-04-18T17:06:24.999Z,3.45
2023-04-18T17:08:55.915Z,3.95
2023-04-18T17:11:30.306Z,3.05
2023-04-18T17:14:00.841Z,3.83
2023-04-18T17:16:30.996Z,4.00
2023-04-18T17:19:01.855Z,4.55
2023-04-18T17:21:33.553Z,5.97
2023-04-18T17:24:04.114Z,6.80
2023-04-18T17:26:37.638Z,5.95
2023-04-18T17:29:07.862Z,6.05
2023-04-18T17:31:38.043Z,6.63
2023-04-18T17:34:08.547Z,4.50
2023-04-18T17:36:38.893Z,3.75
2023-04-18T17:39:09.917Z,4.32
2023-04-18T17:41:42.576Z,4.68
2023-04-18T17:44:12.847Z,6.30
2023-04-18T17:46:43.616Z,4.78
2023-04-18T17:49:14.844Z,4.38
2023-04-18T17:51:46.366Z,3.80
2023-04-18T17:54:21.351Z,5.20
2023-04-18T17:56:56.959Z,4.20
2023-04-18T17:59:28.491Z,4.00
2023-04-18T18:01:59.745Z,6.13
2023-04-18T18:04:30.650Z,4.20
2023-04-18T18:07:04.317Z,4.28
2023-04-18T18:09:34.482Z,4.25
2023-04-18T18:12:07.627Z,4.53
2023-04-18T18:14:37.958Z,3.22
2023-04-18T18:17:08.181Z,3.17
2023-04-18T18:19:39.098Z,3.25
2023-04-18T18:22:09.715Z,4.05
2023-04-18T18:24:40.152Z,4.03
2023-04-18T18:27:13.060Z,3.90
2023-04-18T18:29:43.325Z,2.55
2023-04-18T18:32:13.471Z,2.83
2023-04-18T18:34:43.647Z,3.03
2023-04-18T18:37:13.917Z,3.10
2023-04-18T18:39:44.106Z,3.03
2023-04-18T18:42:17.056Z,3.63
2023-04-18T18:44:47.363Z,4.05
2023-04-18T18:47:17.756Z,4.38
2023-04-18T18:49:48.948Z,3.30
2023-04-18T18:52:19.354Z,3.50
2023-04-18T18:54:49.788Z,4.15
2023-04-18T18:57:22.694Z,5.43
2023-04-18T18:59:56.319Z,3.67
2023-04-18T19:02:26.616Z,5.38
2023-04-18T19:04:57.172Z,3.40
2023-04-18T19:07:29.524Z,3.70
2023-04-18T19:10:01.828Z,2.45
2023-04-18T19:12:34.846Z,2.88
2023-04-18T19:15:05.534Z,3.25
2023-04-18T19:17:36.134Z,3.55
2023-04-18T19:20:07.085Z,3.05
2023-04-18T19:22:37.580Z,3.13
2023-04-18T19:25:09.025Z,4.00
2023-04-18T19:27:41.821Z,3.58
2023-04-18T19:30:13.047Z,5.18
2023-04-18T19:32:43.537Z,3.80
2023-04-18T19:35:13.964Z,5.70
2023-04-18T19:37:49.039Z,5.07
2023-04-18T19:40:20.078Z,5.63
2023-04-18T19:42:55.359Z,4.25
2023-04-18T19:45:26.320Z,5.95
2023-04-18T19:47:57.069Z,4.47
2023-04-18T19:50:28.026Z,4.90
2023-04-18T19:52:58.217Z,4.47
2023-04-18T19:55:28.817Z,3.95
2023-04-18T19:58:02.711Z,4.50
2023-04-18T20:00:34.290Z,4.15
2023-04-18T20:03:04.710Z,3.65
2023-04-18T20:05:35.136Z,4.20
2023-04-18T20:08:05.655Z,3.10
2023-04-18T20:10:37.639Z,4.20
2023-04-18T20:13:11.478Z,2.90
2023-04-18T20:15:42.440Z,2.42
2023-04-18T20:18:12.883Z,2.67
2023-04-18T20:20:43.313Z,2.58
2023-04-18T20:23:14.792Z,3.55
2023-04-18T20:25:45.028Z,2.78
2023-04-18T20:28:18.042Z,2.78
2023-04-18T20:30:48.563Z,3.10
2023-04-18T20:33:18.940Z,2.10
2023-04-18T20:35:49.709Z,3.25
2023-04-18T20:38:23.613Z,2.15
2023-04-18T20:40:59.589Z,2.47
2023-04-18T20:43:55.710Z,3.55
2023-04-18T20:46:32.078Z,2.95
2023-04-18T20:49:09.605Z,2.25
2023-04-18T20:51:40.916Z,2.97
2023-04-18T20:54:11.375Z,2.60
2023-04-18T20:56:41.377Z,2.78
2023-04-18T20:59:14.086Z,2.75
2023-04-18T21:01:44.404Z,2.42
2023-04-18T21:04:14.770Z,2.33
2023-04-18T21:06:45.243Z,2.40
2023-04-18T21:09:15.793Z,2.20
2023-04-18T21:11:46.057Z,2.22
2023-04-18T21:14:20.117Z,2.20
2023-04-18T21:16:50.229Z,1.60
2023-04-18T21:19:20.281Z,2.47
2023-04-18T21:21:50.473Z,2.67
2023-04-18T21:24:20.627Z,2.88
2023-04-18T21:26:50.956Z,2.58
2023-04-18T21:29:24.084Z,3.42
2023-04-18T21:31:54.362Z,2.40
2023-04-18T21:34:24.555Z,2.30
2023-04-18T21:36:54.668Z,2.60
2023-04-18T21:39:25.043Z,2.45
2023-04-18T21:41:55.543Z,2.15
2023-04-18T21:44:28.401Z,2.97
2023-04-18T21:46:59.647Z,2.42
2023-04-18T21:49:29.907Z,2.70
2023-04-18T21:52:00.131Z,3.28
2023-04-18T21:54:30.471Z,2.15
2023-04-18T21:57:00.955Z,2.05
2023-04-18T21:59:34.174Z,2.42
2023-04-18T22:02:05.141Z,2.90
2023-04-18T22:04:38.256Z,3.05
2023-04-18T22:07:09.012Z,3.03
2023-04-18T22:09:39.321Z,2.85
2023-04-18T22:12:09.658Z,2.92
2023-04-18T22:14:49.443Z,2.92
2023-04-18T22:17:21.083Z,3.33
2023-04-18T22:19:51.548Z,2.88
2023-04-18T22:22:22.254Z,3.00
2023-04-18T22:24:52.475Z,3.83
2023-04-18T22:27:22.752Z,4.38
2023-04-18T22:29:55.848Z,3.38
2023-04-18T22:32:26.091Z,3.75
2023-04-18T22:34:56.923Z,3.60
2023-04-18T22:37:27.170Z,4.25
2023-04-18T22:39:57.524Z,2.72
2023-04-18T22:42:29.895Z,3.47
2023-04-18T22:45:03.589Z,3.08
2023-04-18T22:47:34.831Z,3.72
2023-04-18T22:50:05.214Z,2.90
2023-04-18T22:52:35.614Z,4.00
2023-04-18T22:55:06.977Z,3.08
2023-04-18T22:57:37.180Z,2.95
2023-04-18T23:00:13.846Z,4.05
2023-04-18T23:02:44.443Z,3.40
2023-04-18T23:05:16.277Z,3.92
2023-04-18T23:07:46.479Z,2.95
2023-04-18T23:10:19.452Z,2.70
2023-04-18T23:12:50.077Z,4.43
2023-04-18T23:15:23.906Z,3.13
2023-04-18T23:17:55.519Z,2.88
2023-04-18T23:20:25.963Z,3.25
2023-04-18T23:22:56.322Z,3.47
2023-04-18T23:25:29.542Z,3.55
2023-04-18T23:27:59.733Z,3.65
2023-04-18T23:30:32.856Z,3.42
2023-04-18T23:33:03.464Z,2.83
2023-04-18T23:35:33.838Z,2.35
2023-04-18T23:38:04.049Z,2.42
2023-04-18T23:40:34.222Z,3.05
2023-04-18T23:43:04.620Z,2.70
2023-04-18T23:45:37.595Z,3.35
2023-04-18T23:48:07.810Z,2.92
2023-04-18T23:50:39.487Z,3.10
2023-04-18T23:53:09.709Z,3.47
2023-04-18T23:55:40.419Z,3.05
2023-04-18T23:58:10.558Z,2.40
